createdAt,value
2018-08-12T00:01:21.246Z,58.52
2018-08-12T00:03:50.682Z,58.70
2018-08-12T00:06:20.065Z,57.68
2018-08-12T00:08:49.558Z,59.35
2018-08-12T00:11:18.973Z,56.68
2018-08-12T00:13:48.442Z,56.85
2018-08-12T00:16:17.889Z,58.38
2018-08-12T00:18:47.329Z,58.70
2018-08-12T00:21:16.737Z,57.52
2018-08-12T00:23:46.236Z,56.71
2018-08-12T00:26:15.610Z,58.07
2018-08-12T00:28:45.248Z,58.48
2018-08-12T00:31:14.678Z,58.47
2018-08-12T00:33:44.150Z,59.00
2018-08-12T00:36:13.550Z,59.90
2018-08-12T00:38:42.973Z,59.77
2018-08-12T00:41:12.373Z,59.46
2018-08-12T00:43:41.885Z,60.02
2018-08-12T00:46:11.245Z,59.78
2018-08-12T00:48:40.662Z,58.48
2018-08-12T00:51:10.115Z,58.96
2018-08-12T00:53:39.581Z,58.11
2018-08-12T00:56:09.025Z,58.74
2018-08-12T00:58:38.489Z,58.97
2018-08-12T01:01:08.261Z,59.48
2018-08-12T01:03:37.714Z,59.97
2018-08-12T01:06:07.084Z,59.94
2018-08-12T01:08:36.511Z,59.72
2018-08-12T01:11:06.129Z,59.47
2018-08-12T01:13:35.599Z,60.21
2018-08-12T01:16:05.401Z,60.34
2018-08-12T01:18:34.954Z,60.49
2018-08-12T01:21:04.365Z,59.99
2018-08-12T01:23:34.130Z,60.41
2018-08-12T01:26:03.538Z,60.14
2018-08-12T01:28:32.977Z,60.11
2018-08-12T01:31:02.446Z,60.08
2018-08-12T01:33:32.052Z,59.91
2018-08-12T01:36:01.453Z,59.76
2018-08-12T01:38:30.865Z,60.41
2018-08-12T01:41:00.234Z,60.82
2018-08-12T01:43:29.764Z,61.49
2018-08-12T01:45:59.138Z,61.94
2018-08-12T01:48:28.546Z,60.85
2018-08-12T01:50:57.901Z,61.66
2018-08-12T01:53:27.282Z,61.16
2018-08-12T01:55:56.634Z,61.16
2018-08-12T01:58:26.058Z,61.49
2018-08-12T02:00:55.418Z,61.67
2018-08-12T02:03:24.895Z,61.76
2018-08-12T02:05:54.254Z,61.65
2018-08-12T02:08:23.702Z,62.05
2018-08-12T02:10:53.053Z,62.75
2018-08-12T02:13:22.483Z,63.15
2018-08-12T02:15:51.866Z,62.92
2018-08-12T02:18:21.278Z,63.63
2018-08-12T02:20:50.634Z,63.19
2018-08-12T02:23:20.099Z,63.02
2018-08-12T02:25:49.465Z,63.22
2018-08-12T02:28:18.882Z,62.90
2018-08-12T02:30:48.285Z,62.54
2018-08-12T02:33:17.733Z,63.25
2018-08-12T02:35:47.114Z,63.32
2018-08-12T02:38:16.518Z,63.19
2018-08-12T02:40:45.883Z,63.56
2018-08-12T02:43:15.326Z,64.03
2018-08-12T02:45:44.698Z,63.87
2018-08-12T02:48:14.189Z,64.01
2018-08-12T02:50:43.595Z,64.41
2018-08-12T02:53:13.059Z,65.58
2018-08-12T02:55:45.830Z,65.68
2018-08-12T02:58:15.203Z,66.12
2018-08-12T03:00:44.719Z,66.41
2018-08-12T03:03:14.103Z,67.19
2018-08-12T03:05:43.670Z,67.17
2018-08-12T03:08:13.093Z,67.19
2018-08-12T03:10:42.554Z,67.01
2018-08-12T03:13:11.939Z,66.89
2018-08-12T03:15:41.358Z,67.10
2018-08-12T03:18:10.702Z,67.65
2018-08-12T03:20:40.180Z,68.17
2018-08-12T03:23:09.560Z,67.99
2018-08-12T03:25:39.054Z,68.02
2018-08-12T03:28:08.550Z,67.84
2018-08-12T03:30:37.956Z,68.01
2018-08-12T03:33:07.359Z,68.25
2018-08-12T03:35:36.801Z,67.40
2018-08-12T03:38:07.110Z,67.22
2018-08-12T03:40:36.577Z,67.84
2018-08-12T03:43:06.222Z,68.49
2018-08-12T03:45:35.834Z,68.60
2018-08-12T03:48:05.550Z,69.49
2018-08-12T03:50:35.018Z,69.99
2018-08-12T03:53:04.403Z,69.91
2018-08-12T03:55:33.815Z,70.53
2018-08-12T03:58:03.241Z,70.42
2018-08-12T04:00:32.745Z,71.41
2018-08-12T04:03:02.177Z,70.83
2018-08-12T04:05:31.625Z,70.92
2018-08-12T04:08:01.015Z,71.21
2018-08-12T04:10:30.438Z,71.29
2018-08-12T04:12:59.849Z,71.11
2018-08-12T04:15:29.246Z,71.32
2018-08-12T04:17:58.629Z,71.15
2018-08-12T04:20:28.120Z,71.32
2018-08-12T04:22:57.542Z,71.05
2018-08-12T04:25:26.967Z,71.46
2018-08-12T04:27:56.379Z,70.79
2018-08-12T04:30:25.879Z,70.64
2018-08-12T04:32:55.269Z,70.64
2018-08-12T04:35:24.681Z,70.74
2018-08-12T04:37:54.073Z,71.01
2018-08-12T04:40:23.509Z,70.80
2018-08-12T04:42:52.910Z,70.06
2018-08-12T04:45:22.402Z,69.95
2018-08-12T04:47:51.786Z,69.76
2018-08-12T04:50:21.190Z,69.54
2018-08-12T04:52:50.537Z,69.47
2018-08-12T04:55:19.989Z,70.02
2018-08-12T04:57:49.333Z,69.91
2018-08-12T05:00:18.777Z,69.80
2018-08-12T05:02:48.141Z,69.91
2018-08-12T05:05:17.573Z,69.19
2018-08-12T05:07:46.929Z,69.19
2018-08-12T05:10:16.403Z,68.07
2018-08-12T05:12:45.778Z,69.26
2018-08-12T05:15:15.196Z,69.05
2018-08-12T05:17:44.563Z,69.26
2018-08-12T05:20:14.018Z,68.72
2018-08-12T05:22:43.378Z,67.91
2018-08-12T05:25:12.818Z,67.52
2018-08-12T05:27:42.170Z,67.14
2018-08-12T05:30:12.165Z,65.80
2018-08-12T05:32:42.386Z,65.83
2018-08-12T05:35:13.219Z,65.77
2018-08-12T05:37:43.252Z,64.97
2018-08-12T05:40:13.355Z,65.08
2018-08-12T05:42:42.754Z,65.37
2018-08-12T05:45:12.234Z,65.12
2018-08-12T05:47:41.743Z,65.71
2018-08-12T05:50:11.373Z,65.93
2018-08-12T05:52:40.741Z,65.88
2018-08-12T05:55:10.097Z,65.14
2018-08-12T05:57:39.497Z,66.52
2018-08-12T06:00:12.514Z,67.17
2018-08-12T06:02:42.066Z,67.02
2018-08-12T06:05:11.577Z,66.67
2018-08-12T06:07:40.934Z,66.97
2018-08-12T06:10:12.322Z,66.44
2018-08-12T06:12:41.729Z,66.36
2018-08-12T06:15:12.410Z,67.03
2018-08-12T06:17:41.778Z,66.30
2018-08-12T06:20:12.190Z,65.32
2018-08-12T06:22:41.578Z,63.92
2018-08-12T06:25:12.014Z,63.60
2018-08-12T06:27:41.630Z,63.59
2018-08-12T06:30:14.560Z,63.52
2018-08-12T06:32:43.945Z,63.64
2018-08-12T06:35:13.678Z,63.00
2018-08-12T06:37:43.070Z,62.52
2018-08-12T06:40:13.565Z,61.60
2018-08-12T06:42:44.330Z,62.18
2018-08-12T06:45:16.486Z,61.48
2018-08-12T06:47:47.000Z,60.84
2018-08-12T06:50:16.483Z,59.93
2018-08-12T06:52:45.862Z,59.27
2018-08-12T06:55:15.359Z,58.99
2018-08-12T06:57:44.980Z,58.33
2018-08-12T07:00:17.882Z,58.57
2018-08-12T07:02:47.311Z,58.33
2018-08-12T07:05:16.798Z,58.52
2018-08-12T07:07:46.203Z,58.55
2018-08-12T07:10:16.262Z,57.37
2018-08-12T07:12:45.688Z,57.28
2018-08-12T07:15:16.934Z,56.87
2018-08-12T07:17:46.892Z,56.60
2018-08-12T07:20:16.622Z,56.10
2018-08-12T07:22:46.011Z,56.62
2018-08-12T07:25:15.715Z,55.31
2018-08-12T07:27:45.093Z,54.80
2018-08-12T07:30:16.767Z,53.57
2018-08-12T07:32:46.178Z,53.81
2018-08-12T07:35:15.541Z,53.25
2018-08-12T07:37:44.918Z,53.42
2018-08-12T07:40:20.102Z,53.38
2018-08-12T07:42:50.765Z,52.52
2018-08-12T07:45:20.274Z,52.12
2018-08-12T07:47:49.695Z,51.94
2018-08-12T07:55:09.405Z,50.96
2018-08-12T07:57:38.863Z,50.85
2018-08-12T08:00:12.636Z,50.07
2018-08-12T08:02:42.127Z,49.52
2018-08-12T08:05:11.567Z,49.37
2018-08-12T08:07:41.270Z,48.49
2018-08-12T08:10:16.027Z,48.45
2018-08-12T08:12:45.606Z,47.32
2018-08-12T08:15:20.392Z,47.40
2018-08-12T08:17:50.043Z,45.88
2018-08-12T08:20:19.551Z,46.29
2018-08-12T08:22:49.013Z,46.46
2018-08-12T08:25:18.493Z,46.35
2018-08-12T08:27:47.830Z,45.18
2018-08-12T08:30:17.490Z,44.62
2018-08-12T08:32:46.881Z,45.13
2018-08-12T08:35:16.329Z,44.15
2018-08-12T08:37:45.745Z,44.39
2018-08-12T08:40:16.856Z,43.99
2018-08-12T08:42:46.649Z,43.18
2018-08-12T08:45:19.014Z,43.72
2018-08-12T08:47:49.534Z,44.62
2018-08-12T08:50:20.641Z,44.18
2018-08-12T08:52:50.170Z,43.49
2018-08-12T08:55:19.679Z,42.81
2018-08-12T08:57:49.039Z,42.88
2018-08-12T09:00:20.127Z,42.06
2018-08-12T09:02:50.800Z,41.81
2018-08-12T09:05:20.580Z,41.42
2018-08-12T09:07:50.521Z,41.55
2018-08-12T09:10:20.515Z,40.50
2018-08-12T09:12:49.888Z,39.54
2018-08-12T09:15:20.345Z,39.53
2018-08-12T09:17:50.044Z,39.51
2018-08-12T09:20:20.782Z,38.99
2018-08-12T09:22:50.204Z,38.19
2018-08-12T09:25:19.651Z,38.09
2018-08-12T09:27:49.039Z,38.76
2018-08-12T09:30:20.648Z,38.26
2018-08-12T09:32:50.191Z,37.95
2018-08-12T09:35:19.647Z,36.93
2018-08-12T09:37:49.026Z,37.32
2018-08-12T09:40:19.191Z,37.50
2018-08-12T09:42:48.976Z,36.63
2018-08-12T09:45:21.047Z,36.51
2018-08-12T09:47:50.483Z,36.65
2018-08-12T09:50:20.872Z,36.46
2018-08-12T09:52:51.502Z,36.45
2018-08-12T09:55:21.217Z,36.25
2018-08-12T09:57:50.619Z,35.61
2018-08-12T10:00:27.618Z,35.61
2018-08-12T10:02:57.823Z,34.93
2018-08-12T10:05:27.379Z,35.61
2018-08-12T10:07:56.775Z,33.92
2018-08-12T10:10:26.223Z,35.15
2018-08-12T10:12:55.631Z,34.99
2018-08-12T10:15:25.199Z,34.16
2018-08-12T10:17:56.624Z,33.32
2018-08-12T10:20:26.090Z,33.01
2018-08-12T10:22:55.499Z,32.29
2018-08-12T10:25:25.003Z,33.11
2018-08-12T10:27:54.419Z,32.71
2018-08-12T10:30:23.969Z,31.86
2018-08-12T10:32:53.387Z,31.82
2018-08-12T10:35:22.827Z,31.87
2018-08-12T10:37:52.253Z,31.73
2018-08-12T10:40:22.028Z,31.11
2018-08-12T10:42:51.640Z,30.82
2018-08-12T10:45:21.155Z,31.02
2018-08-12T10:47:50.570Z,30.45
2018-08-12T10:50:20.868Z,30.66
2018-08-12T10:52:50.703Z,30.58
2018-08-12T10:55:21.592Z,31.07
2018-08-12T10:57:51.124Z,30.86
2018-08-12T11:00:25.238Z,30.68
2018-08-12T11:02:54.850Z,30.19
2018-08-12T11:05:24.343Z,30.75
2018-08-12T11:07:57.065Z,30.05
2018-08-12T11:10:27.020Z,28.20
2018-08-12T11:12:56.477Z,27.95
2018-08-12T11:15:25.979Z,28.58
2018-08-12T11:17:55.399Z,27.56
2018-08-12T11:20:24.872Z,27.76
2018-08-12T11:22:54.262Z,28.37
2018-08-12T11:25:23.767Z,29.00
2018-08-12T11:27:53.188Z,27.72
2018-08-12T11:30:22.720Z,27.86
2018-08-12T11:32:52.167Z,26.51
2018-08-12T11:35:21.684Z,25.64
2018-08-12T11:37:51.099Z,25.89
2018-08-12T11:40:20.595Z,25.89
2018-08-12T11:42:49.990Z,25.87
2018-08-12T11:45:19.914Z,25.49
2018-08-12T11:47:49.817Z,24.60
2018-08-12T11:50:19.756Z,26.21
2018-08-12T11:52:49.150Z,26.07
2018-08-12T11:55:19.955Z,26.55
2018-08-12T11:57:49.410Z,25.48
2018-08-12T12:00:20.973Z,27.24
2018-08-12T12:02:51.566Z,26.72
2018-08-12T12:05:21.087Z,26.64
2018-08-12T12:07:50.507Z,27.75
2018-08-12T12:10:21.626Z,25.92
2018-08-12T12:12:51.836Z,25.65
2018-08-12T12:15:21.438Z,25.76
2018-08-12T12:17:50.830Z,26.50
2018-08-12T12:20:20.923Z,25.87
2018-08-12T12:22:50.278Z,25.27
2018-08-12T12:25:20.813Z,25.14
2018-08-12T12:27:50.256Z,25.16
2018-08-12T12:30:21.567Z,23.76
2018-08-12T12:32:52.176Z,23.37
2018-08-12T12:35:21.704Z,23.81
2018-08-12T12:37:51.175Z,25.79
2018-08-12T12:40:20.913Z,24.31
2018-08-12T12:42:50.394Z,23.65
2018-08-12T12:45:19.810Z,24.16
2018-08-12T12:47:49.243Z,25.43
2018-08-12T12:50:21.435Z,24.07
2018-08-12T12:52:51.803Z,24.01
2018-08-12T12:55:22.356Z,23.89
2018-08-12T12:57:51.783Z,23.29
2018-08-12T13:00:22.063Z,23.26
2018-08-12T13:02:52.054Z,24.22
2018-08-12T13:05:22.294Z,22.18
2018-08-12T13:07:52.110Z,23.25
2018-08-12T13:10:21.646Z,21.95
2018-08-12T13:12:51.056Z,22.34
2018-08-12T13:15:20.504Z,22.04
2018-08-12T13:17:49.916Z,20.03
2018-08-12T13:20:20.654Z,20.92
2018-08-12T13:22:50.578Z,19.63
2018-08-12T13:25:21.914Z,20.34
2018-08-12T13:27:51.298Z,19.86
2018-08-12T13:30:21.654Z,20.74
2018-08-12T13:32:51.432Z,19.70
2018-08-12T13:35:20.838Z,21.42
2018-08-12T13:37:50.249Z,21.04
2018-08-12T13:40:19.665Z,20.82
2018-08-12T13:42:49.165Z,21.78
2018-08-12T13:45:18.766Z,21.62
2018-08-12T13:47:48.129Z,20.73
2018-08-12T13:50:22.949Z,21.02
2018-08-12T13:52:52.929Z,21.61
2018-08-12T13:55:23.145Z,21.26
2018-08-12T13:57:53.127Z,19.89
2018-08-12T14:00:23.803Z,18.63
2018-08-12T14:02:53.187Z,18.90
2018-08-12T14:05:23.115Z,19.44
2018-08-12T14:07:52.710Z,18.08
2018-08-12T14:10:22.203Z,18.44
2018-08-12T14:12:51.566Z,18.25
2018-08-12T14:15:21.246Z,17.95
2018-08-12T14:17:51.259Z,18.51
2018-08-12T14:20:21.579Z,18.86
2018-08-12T14:22:50.951Z,18.87
2018-08-12T14:25:20.350Z,19.68
2018-08-12T14:27:49.713Z,18.66
2018-08-12T14:30:20.715Z,16.92
2018-08-12T14:32:50.436Z,17.36
2018-08-12T14:35:20.184Z,17.18
2018-08-12T14:37:49.543Z,16.25
2018-08-12T14:40:19.052Z,17.17
2018-08-12T14:42:48.414Z,18.02
2018-08-12T14:45:17.962Z,18.03
2018-08-12T14:47:47.383Z,17.50
2018-08-12T14:50:19.413Z,17.46
2018-08-12T14:52:48.894Z,16.63
2018-08-12T14:55:20.319Z,16.63
2018-08-12T14:57:49.835Z,17.34
2018-08-12T15:00:21.557Z,16.62
2018-08-12T15:02:52.087Z,16.51
2018-08-12T15:05:22.123Z,16.75
2018-08-12T15:07:51.550Z,18.84
2018-08-12T15:10:20.987Z,19.11
2018-08-12T15:12:50.378Z,18.87
2018-08-12T15:15:19.835Z,17.47
2018-08-12T15:17:49.285Z,18.67
2018-08-12T15:20:18.780Z,17.26
2018-08-12T15:22:48.293Z,19.50
2018-08-12T15:25:19.978Z,17.65
2018-08-12T15:27:49.596Z,16.29
2018-08-12T15:30:19.109Z,17.71
2018-08-12T15:32:48.519Z,16.51
2018-08-12T15:35:17.986Z,16.18
2018-08-12T15:37:47.385Z,16.29
2018-08-12T15:40:16.841Z,18.12
2018-08-12T15:42:46.300Z,16.15
2018-08-12T15:45:17.789Z,16.53
2018-08-12T15:47:47.795Z,17.22
2018-08-12T15:50:17.260Z,17.05
2018-08-12T15:52:47.203Z,16.92
2018-08-12T15:55:16.697Z,16.77
2018-08-12T15:57:46.112Z,16.93
2018-08-12T16:00:19.630Z,16.14
2018-08-12T16:02:49.425Z,16.99
2018-08-12T16:05:18.950Z,18.50
2018-08-12T16:07:49.047Z,16.98
2018-08-12T16:10:21.482Z,16.80
2018-08-12T16:12:51.943Z,17.33
2018-08-12T16:15:21.939Z,17.67
2018-08-12T16:17:51.370Z,17.07
2018-08-12T16:20:20.794Z,18.76
2018-08-12T16:22:50.238Z,19.75
2018-08-12T16:25:21.036Z,19.32
2018-08-12T16:27:50.460Z,18.12
2018-08-12T16:30:20.232Z,18.82
2018-08-12T16:32:49.652Z,18.58
2018-08-12T16:35:19.220Z,19.45
2018-08-12T16:37:49.059Z,20.18
2018-08-12T16:40:20.373Z,19.66
2018-08-12T16:42:50.209Z,20.18
2018-08-12T16:45:20.230Z,19.54
2018-08-12T16:47:49.827Z,19.88
2018-08-12T16:50:19.308Z,19.52
2018-08-12T16:52:48.720Z,19.47
2018-08-12T16:55:19.069Z,18.43
2018-08-12T16:57:48.757Z,18.89
2018-08-12T17:00:20.704Z,17.93
2018-08-12T17:02:50.245Z,17.97
2018-08-12T17:05:21.822Z,18.99
2018-08-12T17:07:51.882Z,18.06
2018-08-12T17:10:21.748Z,19.38
2018-08-12T17:12:51.258Z,18.58
2018-08-12T17:15:21.881Z,18.17
2018-08-12T17:17:51.575Z,19.27
2018-08-12T17:20:21.902Z,18.66
2018-08-12T17:22:51.365Z,18.30
2018-08-12T17:25:20.734Z,19.06
2018-08-12T17:27:50.193Z,20.12
2018-08-12T17:30:19.576Z,19.27
2018-08-12T17:32:49.001Z,19.88
2018-08-12T17:35:18.362Z,19.49
2018-08-12T17:37:47.852Z,20.43
2018-08-12T17:40:17.231Z,21.27
2018-08-12T17:42:46.724Z,20.99
2018-08-12T17:45:16.098Z,22.92
2018-08-12T17:47:45.639Z,22.08
2018-08-12T17:50:16.359Z,24.19
2018-08-12T17:52:45.899Z,21.53
2018-08-12T17:55:15.315Z,23.23
2018-08-12T17:57:44.821Z,21.71
2018-08-12T18:00:16.227Z,24.31
2018-08-12T18:02:45.696Z,24.42
2018-08-12T18:05:15.104Z,22.90
2018-08-12T18:07:45.070Z,22.57
2018-08-12T18:10:14.511Z,22.79
2018-08-12T18:12:43.942Z,23.86
2018-08-12T18:15:13.379Z,24.28
2018-08-12T18:17:43.190Z,24.26
2018-08-12T18:20:12.654Z,23.90
2018-08-12T18:22:42.072Z,24.24
2018-08-12T18:25:12.302Z,24.19
2018-08-12T18:27:41.729Z,23.84
2018-08-12T18:30:13.778Z,23.73
2018-08-12T18:32:43.581Z,24.45
2018-08-12T18:35:13.594Z,25.25
2018-08-12T18:37:43.411Z,24.80
2018-08-12T18:40:13.319Z,24.88
2018-08-12T18:42:42.837Z,25.24
2018-08-12T18:45:12.245Z,26.20
2018-08-12T18:47:41.722Z,25.09
2018-08-12T18:50:11.757Z,25.47
2018-08-12T18:52:41.857Z,24.39
2018-08-12T18:55:12.503Z,24.26
2018-08-12T18:57:41.954Z,26.41
2018-08-12T19:00:13.462Z,27.01
2018-08-12T19:02:42.840Z,26.79
2018-08-12T19:05:13.089Z,27.03
2018-08-12T19:07:42.464Z,28.06
2018-08-12T19:10:12.322Z,27.27
2018-08-12T19:12:42.409Z,28.50
2018-08-12T19:15:12.674Z,29.06
2018-08-12T19:17:42.054Z,29.51
2018-08-12T19:20:12.117Z,29.04
2018-08-12T19:22:41.519Z,29.61
2018-08-12T19:25:11.138Z,30.16
2018-08-12T19:27:40.657Z,30.15
2018-08-12T19:30:12.034Z,30.01
2018-08-12T19:32:41.530Z,31.41
2018-08-12T19:35:11.765Z,31.09
2018-08-12T19:37:41.256Z,31.83
2018-08-12T19:42:39.759Z,31.53
2018-08-12T19:45:10.654Z,31.23
2018-08-12T19:47:40.206Z,29.89
2018-08-12T19:50:09.844Z,31.54
2018-08-12T19:52:39.402Z,29.06
2018-08-12T19:55:09.019Z,28.44
2018-08-12T19:57:38.844Z,29.02
2018-08-12T20:00:12.012Z,27.98
2018-08-12T20:02:42.145Z,27.57
2018-08-12T20:05:11.537Z,28.37
2018-08-12T20:07:41.058Z,29.67
2018-08-12T20:10:11.578Z,28.09
2018-08-12T20:12:41.220Z,28.53
2018-08-12T20:15:11.606Z,29.67
2018-08-12T20:17:41.634Z,27.90
2018-08-12T20:20:12.699Z,28.79
2018-08-12T20:22:42.355Z,27.37
2018-08-12T20:25:11.782Z,27.21
2018-08-12T20:27:41.164Z,29.36
2018-08-12T20:30:12.354Z,28.27
2018-08-12T20:32:42.251Z,28.86
2018-08-12T20:35:11.725Z,30.09
2018-08-12T20:37:41.134Z,28.53
2018-08-12T20:40:11.115Z,30.36
2018-08-12T20:42:41.046Z,29.10
2018-08-12T20:45:10.671Z,30.07
2018-08-12T20:47:40.062Z,31.89
2018-08-12T20:50:09.810Z,32.63
2018-08-12T20:52:39.250Z,31.78
2018-08-12T20:55:09.339Z,32.45
2018-08-12T20:57:38.860Z,33.68
2018-08-12T21:00:10.214Z,35.35
2018-08-12T21:02:39.895Z,35.97
2018-08-12T21:05:09.406Z,36.46
2018-08-12T21:07:40.746Z,36.47
2018-08-12T21:10:10.957Z,37.22
2018-08-12T21:12:40.565Z,36.87
2018-08-12T21:15:10.077Z,36.49
2018-08-12T21:17:39.478Z,37.14
2018-08-12T21:20:08.954Z,36.32
2018-08-12T21:22:38.778Z,36.88
2018-08-12T21:25:08.525Z,36.53
2018-08-12T21:27:38.417Z,37.44
2018-08-12T21:30:08.037Z,35.37
2018-08-12T21:32:37.433Z,36.24
2018-08-12T21:35:06.897Z,35.94
2018-08-12T21:37:36.357Z,36.01
2018-08-12T21:40:06.104Z,37.53
2018-08-12T21:42:35.545Z,36.45
2018-08-12T21:45:05.608Z,36.00
2018-08-12T21:47:35.347Z,36.44
2018-08-12T21:50:05.485Z,36.64
2018-08-12T21:52:35.007Z,37.64
2018-08-12T21:55:04.460Z,37.79
2018-08-12T21:57:33.863Z,38.74
2018-08-12T22:00:03.434Z,38.92
2018-08-12T22:02:32.845Z,39.08
2018-08-12T22:05:02.437Z,38.70
2018-08-12T22:07:31.809Z,38.13
2018-08-12T22:10:01.333Z,39.39
2018-08-12T22:12:30.726Z,38.57
2018-08-12T22:15:00.251Z,39.63
2018-08-12T22:17:29.959Z,39.07
2018-08-12T22:19:59.349Z,39.60
2018-08-12T22:22:28.826Z,38.93
2018-08-12T22:24:58.275Z,39.27
2018-08-12T22:27:27.866Z,38.91
2018-08-12T22:29:57.622Z,40.00
2018-08-12T22:32:27.158Z,41.03
2018-08-12T22:34:56.523Z,40.52
2018-08-12T22:37:26.118Z,41.74
2018-08-12T22:39:55.491Z,42.35
2018-08-12T22:42:24.987Z,40.82
2018-08-12T22:44:54.375Z,40.78
2018-08-12T22:47:23.886Z,41.57
2018-08-12T22:49:53.274Z,41.21
2018-08-12T22:52:22.766Z,41.23
2018-08-12T22:54:52.198Z,41.83
2018-08-12T22:57:21.626Z,41.31
2018-08-12T22:59:51.034Z,41.78
2018-08-12T23:02:20.678Z,41.58
2018-08-12T23:04:50.095Z,42.27
2018-08-12T23:07:19.621Z,40.79
2018-08-12T23:09:49.074Z,41.36
2018-08-12T23:12:18.657Z,40.90
2018-08-12T23:14:48.089Z,40.77
2018-08-12T23:17:18.670Z,40.79
2018-08-12T23:19:48.082Z,41.03
2018-08-12T23:22:17.573Z,40.76
2018-08-12T23:24:46.980Z,41.12
2018-08-12T23:27:16.503Z,40.50
2018-08-12T23:29:45.911Z,42.44
2018-08-12T23:32:15.515Z,43.22
2018-08-12T23:34:44.929Z,43.41
2018-08-12T23:37:14.510Z,43.72
2018-08-12T23:39:43.917Z,43.36
2018-08-12T23:42:13.411Z,42.41
2018-08-12T23:44:42.826Z,42.08
2018-08-12T23:47:12.295Z,42.87
2018-08-12T23:49:41.708Z,43.51
2018-08-12T23:52:11.186Z,43.32
2018-08-12T23:54:40.746Z,43.99
2018-08-12T23:57:10.217Z,45.07
2018-08-12T23:59:39.602Z,45.13
